sensor_id;sensor_type;location;lat;lon;timestamp;P1;durP1;ratioP1;P2;durP2;ratioP2
1446;SDS011;717;51.522;7.266;2023-04-01T00:01:35;3.95;;;1.20;;
1446;SDS011;717;51.522;7.266;2023-04-01T00:04:04;2.45;;;1.13;;
1446;SDS011;717;51.522;7.266;2023-04-01T00:06:32;4.53;;;1.42;;
1446;SDS011;717;51.522;7.266;2023-04-01T00:09:01;2.13;;;0.90;;
1446;SDS011;717;51.522;7.266;2023-04-01T00:11:30;4.53;;;1.00;;
1446;SDS011;717;51.522;7.266;2023-04-01T00:13:58;2.65;;;0.88;;
1446;SDS011;717;51.522;7.266;2023-04-01T00:16:27;1.58;;;1.00;;
1446;SDS011;717;51.522;7.266;2023-04-01T00:18:58;4.40;;;1.00;;
1446;SDS011;717;51.522;7.266;2023-04-01T00:21:27;2.40;;;1.30;;
1446;SDS011;717;51.522;7.266;2023-04-01T00:23:56;3.53;;;0.98;;
1446;SDS011;717;51.522;7.266;2023-04-01T00:26:25;2.38;;;1.25;;
1446;SDS011;717;51.522;7.266;2023-04-01T00:28:54;3.40;;;1.08;;
1446;SDS011;717;51.522;7.266;2023-04-01T00:31:22;1.65;;;0.98;;
1446;SDS011;717;51.522;7.266;2023-04-01T00:33:51;3.15;;;0.90;;
1446;SDS011;717;51.522;7.266;2023-04-01T00:36:22;4.00;;;1.02;;
1446;SDS011;717;51.522;7.266;2023-04-01T00:38:51;1.95;;;0.68;;
1446;SDS011;717;51.522;7.266;2023-04-01T00:41:20;3.50;;;0.90;;
1446;SDS011;717;51.522;7.266;2023-04-01T00:43:50;4.22;;;0.80;;
1446;SDS011;717;51.522;7.266;2023-04-01T00:46:19;3.78;;;1.63;;
1446;SDS011;717;51.522;7.266;2023-04-01T00:48:49;4.88;;;1.10;;
1446;SDS011;717;51.522;7.266;2023-04-01T00:51:20;5.07;;;1.13;;
1446;SDS011;717;51.522;7.266;2023-04-01T00:53:56;2.08;;;1.10;;
1446;SDS011;717;51.522;7.266;2023-04-01T00:56:30;2.60;;;0.90;;
1446;SDS011;717;51.522;7.266;2023-04-01T00:59:02;3.55;;;1.30;;
1446;SDS011;717;51.522;7.266;2023-04-01T01:01:33;2.80;;;1.17;;
1446;SDS011;717;51.522;7.266;2023-04-01T01:04:03;2.65;;;1.10;;
1446;SDS011;717;51.522;7.266;2023-04-01T01:06:38;2.75;;;1.20;;
1446;SDS011;717;51.522;7.266;2023-04-01T01:09:18;2.05;;;1.38;;
1446;SDS011;717;51.522;7.266;2023-04-01T01:11:55;2.28;;;1.20;;
1446;SDS011;717;51.522;7.266;2023-04-01T01:14:34;2.28;;;1.20;;
1446;SDS011;717;51.522;7.266;2023-04-01T01:17:12;2.15;;;1.00;;
1446;SDS011;717;51.522;7.266;2023-04-01T01:19:52;3.05;;;1.27;;
1446;SDS011;717;51.522;7.266;2023-04-01T01:22:47;1.80;;;1.23;;
1446;SDS011;717;51.522;7.266;2023-04-01T01:25:30;2.10;;;1.10;;
1446;SDS011;717;51.522;7.266;2023-04-01T01:28:11;0.73;;;0.70;;
1446;SDS011;717;51.522;7.266;2023-04-01T01:30:56;2.97;;;1.20;;
1446;SDS011;717;51.522;7.266;2023-04-01T01:33:35;1.23;;;1.00;;
1446;SDS011;717;51.522;7.266;2023-04-01T01:42:38;2.55;;;1.20;;
1446;SDS011;717;51.522;7.266;2023-04-01T01:45:10;1.35;;;1.25;;
1446;SDS011;717;51.522;7.266;2023-04-01T01:47:43;1.92;;;1.10;;
1446;SDS011;717;51.522;7.266;2023-04-01T01:50:13;3.25;;;1.48;;
1446;SDS011;717;51.522;7.266;2023-04-01T01:52:43;2.15;;;1.02;;
1446;SDS011;717;51.522;7.266;2023-04-01T01:55:26;1.20;;;1.10;;
1446;SDS011;717;51.522;7.266;2023-04-01T01:57:58;1.30;;;1.15;;
1446;SDS011;717;51.522;7.266;2023-04-01T02:00:30;1.70;;;1.10;;
1446;SDS011;717;51.522;7.266;2023-04-01T02:03:00;1.52;;;1.10;;
1446;SDS011;717;51.522;7.266;2023-04-01T02:05:29;2.28;;;0.90;;
1446;SDS011;717;51.522;7.266;2023-04-01T02:08:00;1.92;;;1.05;;
1446;SDS011;717;51.522;7.266;2023-04-01T02:10:33;2.78;;;0.63;;
1446;SDS011;717;51.522;7.266;2023-04-01T02:13:09;2.78;;;0.70;;
1446;SDS011;717;51.522;7.266;2023-04-01T02:15:44;0.70;;;0.70;;
1446;SDS011;717;51.522;7.266;2023-04-01T02:18:15;2.60;;;1.00;;
1446;SDS011;717;51.522;7.266;2023-04-01T02:20:46;2.35;;;0.95;;
1446;SDS011;717;51.522;7.266;2023-04-01T02:23:15;1.35;;;0.90;;
1446;SDS011;717;51.522;7.266;2023-04-01T02:25:44;2.28;;;1.20;;
1446;SDS011;717;51.522;7.266;2023-04-01T02:28:16;0.57;;;0.57;;
1446;SDS011;717;51.522;7.266;2023-04-01T02:30:46;2.63;;;1.20;;
1446;SDS011;717;51.522;7.266;2023-04-01T02:33:17;2.70;;;1.00;;
1446;SDS011;717;51.522;7.266;2023-04-01T02:35:48;1.90;;;0.90;;
1446;SDS011;717;51.522;7.266;2023-04-01T02:38:16;1.67;;;0.75;;
1446;SDS011;717;51.522;7.266;2023-04-01T02:40:46;0.63;;;0.63;;
1446;SDS011;717;51.522;7.266;2023-04-01T02:43:18;1.83;;;0.68;;
1446;SDS011;717;51.522;7.266;2023-04-01T02:45:47;1.77;;;1.00;;
1446;SDS011;717;51.522;7.266;2023-04-01T02:48:15;3.80;;;0.80;;
1446;SDS011;717;51.522;7.266;2023-04-01T02:50:44;1.80;;;0.73;;
1446;SDS011;717;51.522;7.266;2023-04-01T02:53:12;1.90;;;0.75;;
1446;SDS011;717;51.522;7.266;2023-04-01T02:55:41;2.63;;;1.10;;
1446;SDS011;717;51.522;7.266;2023-04-01T02:58:09;2.95;;;0.80;;
1446;SDS011;717;51.522;7.266;2023-04-01T03:00:41;2.00;;;1.02;;
1446;SDS011;717;51.522;7.266;2023-04-01T03:03:09;0.70;;;0.70;;
1446;SDS011;717;51.522;7.266;2023-04-01T03:05:38;1.08;;;0.73;;
1446;SDS011;717;51.522;7.266;2023-04-01T03:08:07;2.03;;;0.80;;
1446;SDS011;717;51.522;7.266;2023-04-01T03:10:36;2.72;;;0.68;;
1446;SDS011;717;51.522;7.266;2023-04-01T03:13:05;0.90;;;0.70;;
1446;SDS011;717;51.522;7.266;2023-04-01T03:15:33;2.22;;;0.90;;
1446;SDS011;717;51.522;7.266;2023-04-01T03:18:04;2.00;;;0.80;;
1446;SDS011;717;51.522;7.266;2023-04-01T03:20:33;1.27;;;0.60;;
1446;SDS011;717;51.522;7.266;2023-04-01T03:23:01;5.15;;;1.05;;
1446;SDS011;717;51.522;7.266;2023-04-01T03:25:30;1.48;;;0.52;;
1446;SDS011;717;51.522;7.266;2023-04-01T03:27:58;2.63;;;1.00;;
1446;SDS011;717;51.522;7.266;2023-04-01T03:30:27;1.58;;;0.65;;
1446;SDS011;717;51.522;7.266;2023-04-01T03:32:56;1.27;;;0.50;;
1446;SDS011;717;51.522;7.266;2023-04-01T03:35:28;0.65;;;0.60;;
1446;SDS011;717;51.522;7.266;2023-04-01T03:37:56;1.73;;;0.70;;
1446;SDS011;717;51.522;7.266;2023-04-01T03:40:25;0.85;;;0.60;;
1446;SDS011;717;51.522;7.266;2023-04-01T03:42:53;2.20;;;0.63;;
1446;SDS011;717;51.522;7.266;2023-04-01T03:45:22;1.23;;;0.50;;
1446;SDS011;717;51.522;7.266;2023-04-01T03:47:50;1.23;;;0.60;;
1446;SDS011;717;51.522;7.266;2023-04-01T03:50:19;0.65;;;0.40;;
1446;SDS011;717;51.522;7.266;2023-04-01T03:52:50;0.50;;;0.50;;
1446;SDS011;717;51.522;7.266;2023-04-01T03:55:18;0.93;;;0.60;;
1446;SDS011;717;51.522;7.266;2023-04-01T03:57:47;1.02;;;0.77;;
1446;SDS011;717;51.522;7.266;2023-04-01T04:00:15;1.02;;;0.60;;
1446;SDS011;717;51.522;7.266;2023-04-01T04:02:44;1.65;;;0.70;;
1446;SDS011;717;51.522;7.266;2023-04-01T04:05:13;1.40;;;0.68;;
1446;SDS011;717;51.522;7.266;2023-04-01T04:07:42;2.00;;;0.80;;
1446;SDS011;717;51.522;7.266;2023-04-01T04:10:13;1.75;;;0.50;;
1446;SDS011;717;51.522;7.266;2023-04-01T04:12:41;1.52;;;0.77;;
1446;SDS011;717;51.522;7.266;2023-04-01T04:15:10;1.00;;;0.90;;
1446;SDS011;717;51.522;7.266;2023-04-01T04:17:40;1.63;;;0.80;;
1446;SDS011;717;51.522;7.266;2023-04-01T04:20:08;0.88;;;0.57;;
1446;SDS011;717;51.522;7.266;2023-04-01T04:22:37;0.55;;;0.55;;
1446;SDS011;717;51.522;7.266;2023-04-01T04:25:06;0.70;;;0.68;;
1446;SDS011;717;51.522;7.266;2023-04-01T04:27:38;0.98;;;0.80;;
1446;SDS011;717;51.522;7.266;2023-04-01T04:30:07;1.23;;;0.70;;
1446;SDS011;717;51.522;7.266;2023-04-01T04:32:36;1.63;;;0.80;;
1446;SDS011;717;51.522;7.266;2023-04-01T04:35:07;1.25;;;0.50;;
1446;SDS011;717;51.522;7.266;2023-04-01T04:37:36;1.85;;;1.17;;
1446;SDS011;717;51.522;7.266;2023-04-01T04:40:06;2.03;;;0.80;;
1446;SDS011;717;51.522;7.266;2023-04-01T04:42:38;0.77;;;0.75;;
1446;SDS011;717;51.522;7.266;2023-04-01T04:45:06;3.03;;;1.23;;
1446;SDS011;717;51.522;7.266;2023-04-01T04:47:36;1.83;;;1.10;;
1446;SDS011;717;51.522;7.266;2023-04-01T04:50:06;1.30;;;1.00;;
1446;SDS011;717;51.522;7.266;2023-04-01T04:52:36;1.30;;;1.20;;
1446;SDS011;717;51.522;7.266;2023-04-01T04:55:05;1.55;;;0.73;;
1446;SDS011;717;51.522;7.266;2023-04-01T04:57:34;1.00;;;1.00;;
1446;SDS011;717;51.522;7.266;2023-04-01T05:00:08;2.13;;;1.20;;
1446;SDS011;717;51.522;7.266;2023-04-01T05:02:38;1.10;;;0.88;;
1446;SDS011;717;51.522;7.266;2023-04-01T05:05:07;1.23;;;0.98;;
1446;SDS011;717;51.522;7.266;2023-04-01T05:07:36;1.77;;;1.13;;
1446;SDS011;717;51.522;7.266;2023-04-01T05:10:05;1.20;;;0.90;;
1446;SDS011;717;51.522;7.266;2023-04-01T05:12:34;2.42;;;1.10;;
1446;SDS011;717;51.522;7.266;2023-04-01T05:15:06;0.68;;;0.68;;
1446;SDS011;717;51.522;7.266;2023-04-01T05:17:36;2.17;;;1.00;;
1446;SDS011;717;51.522;7.266;2023-04-01T05:20:05;1.13;;;0.90;;
1446;SDS011;717;51.522;7.266;2023-04-01T05:22:35;1.40;;;0.80;;
1446;SDS011;717;51.522;7.266;2023-04-01T05:25:04;0.85;;;0.73;;
1446;SDS011;717;51.522;7.266;2023-04-01T05:27:33;1.52;;;0.63;;
1446;SDS011;717;51.522;7.266;2023-04-01T05:30:02;2.55;;;0.93;;
1446;SDS011;717;51.522;7.266;2023-04-01T05:32:34;2.28;;;1.20;;
1446;SDS011;717;51.522;7.266;2023-04-01T05:35:04;1.90;;;0.80;;
1446;SDS011;717;51.522;7.266;2023-04-01T05:37:33;2.05;;;1.02;;
1446;SDS011;717;51.522;7.266;2023-04-01T05:40:02;1.63;;;1.10;;
1446;SDS011;717;51.522;7.266;2023-04-01T05:42:32;1.00;;;0.95;;
1446;SDS011;717;51.522;7.266;2023-04-01T05:45:01;0.98;;;0.90;;
1446;SDS011;717;51.522;7.266;2023-04-01T05:47:32;1.58;;;1.25;;
1446;SDS011;717;51.522;7.266;2023-04-01T05:50:01;1.15;;;1.00;;
1446;SDS011;717;51.522;7.266;2023-04-01T05:52:29;1.98;;;1.10;;
1446;SDS011;717;51.522;7.266;2023-04-01T05:54:57;1.00;;;0.90;;
1446;SDS011;717;51.522;7.266;2023-04-01T05:57:26;3.28;;;1.58;;
1446;SDS011;717;51.522;7.266;2023-04-01T05:59:54;2.78;;;1.50;;
1446;SDS011;717;51.522;7.266;2023-04-01T06:02:23;1.60;;;1.50;;
1446;SDS011;717;51.522;7.266;2023-04-01T06:05:02;1.20;;;1.10;;
1446;SDS011;717;51.522;7.266;2023-04-01T06:07:39;1.63;;;1.40;;
1446;SDS011;717;51.522;7.266;2023-04-01T06:10:14;2.78;;;1.50;;
1446;SDS011;717;51.522;7.266;2023-04-01T06:12:51;1.70;;;1.60;;
1446;SDS011;717;51.522;7.266;2023-04-01T06:15:31;2.33;;;1.65;;
1446;SDS011;717;51.522;7.266;2023-04-01T06:21:39;2.58;;;1.33;;
1446;SDS011;717;51.522;7.266;2023-04-01T06:24:25;1.40;;;1.30;;
1446;SDS011;717;51.522;7.266;2023-04-01T06:27:11;2.15;;;1.30;;
1446;SDS011;717;51.522;7.266;2023-04-01T06:29:49;2.88;;;1.60;;
1446;SDS011;717;51.522;7.266;2023-04-01T06:32:46;2.33;;;1.35;;
1446;SDS011;717;51.522;7.266;2023-04-01T06:35:41;2.05;;;1.45;;
1446;SDS011;717;51.522;7.266;2023-04-01T06:38:33;1.63;;;1.33;;
1446;SDS011;717;51.522;7.266;2023-04-01T06:41:29;2.03;;;1.58;;
1446;SDS011;717;51.522;7.266;2023-04-01T06:44:10;2.30;;;1.60;;
1446;SDS011;717;51.522;7.266;2023-04-01T06:46:45;2.33;;;1.38;;
1446;SDS011;717;51.522;7.266;2023-04-01T06:49:25;1.40;;;1.30;;
1446;SDS011;717;51.522;7.266;2023-04-01T06:52:06;1.35;;;1.20;;
1446;SDS011;717;51.522;7.266;2023-04-01T06:54:48;2.35;;;1.23;;
1446;SDS011;717;51.522;7.266;2023-04-01T06:57:20;1.52;;;1.42;;
1446;SDS011;717;51.522;7.266;2023-04-01T06:59:56;1.65;;;1.40;;
1446;SDS011;717;51.522;7.266;2023-04-01T07:02:29;2.13;;;1.60;;
1446;SDS011;717;51.522;7.266;2023-04-01T07:05:04;1.88;;;1.63;;
1446;SDS011;717;51.522;7.266;2023-04-01T07:07:36;2.30;;;1.50;;
1446;SDS011;717;51.522;7.266;2023-04-01T07:10:13;3.28;;;1.50;;
1446;SDS011;717;51.522;7.266;2023-04-01T07:12:46;1.33;;;1.23;;
1446;SDS011;717;51.522;7.266;2023-04-01T07:15:18;2.00;;;1.80;;
1446;SDS011;717;51.522;7.266;2023-04-01T07:17:53;2.58;;;1.70;;
1446;SDS011;717;51.522;7.266;2023-04-01T07:20:25;1.98;;;1.77;;
1446;SDS011;717;51.522;7.266;2023-04-01T07:22:58;2.65;;;1.80;;
1446;SDS011;717;51.522;7.266;2023-04-01T07:25:31;3.70;;;1.50;;
1446;SDS011;717;51.522;7.266;2023-04-01T07:28:05;1.40;;;1.30;;
1446;SDS011;717;51.522;7.266;2023-04-01T07:30:41;2.83;;;1.70;;
1446;SDS011;717;51.522;7.266;2023-04-01T07:33:19;1.50;;;1.38;;
1446;SDS011;717;51.522;7.266;2023-04-01T07:35:58;1.90;;;1.67;;
1446;SDS011;717;51.522;7.266;2023-04-01T07:38:32;2.83;;;1.77;;
1446;SDS011;717;51.522;7.266;2023-04-01T07:41:11;3.00;;;1.88;;
1446;SDS011;717;51.522;7.266;2023-04-01T07:43:51;2.67;;;2.10;;
1446;SDS011;717;51.522;7.266;2023-04-01T07:49:22;2.63;;;2.42;;
1446;SDS011;717;51.522;7.266;2023-04-01T07:51:58;2.55;;;2.00;;
1446;SDS011;717;51.522;7.266;2023-04-01T07:54:32;2.35;;;1.83;;
1446;SDS011;717;51.522;7.266;2023-04-01T07:57:14;1.83;;;1.50;;
1446;SDS011;717;51.522;7.266;2023-04-01T07:59:49;2.58;;;2.00;;
1446;SDS011;717;51.522;7.266;2023-04-01T08:02:28;1.73;;;1.55;;
1446;SDS011;717;51.522;7.266;2023-04-01T08:05:10;2.92;;;2.08;;
1446;SDS011;717;51.522;7.266;2023-04-01T08:07:49;2.78;;;2.58;;
1446;SDS011;717;51.522;7.266;2023-04-01T08:10:28;3.80;;;2.65;;
1446;SDS011;717;51.522;7.266;2023-04-01T08:13:05;2.75;;;2.17;;
1446;SDS011;717;51.522;7.266;2023-04-01T08:15:42;3.25;;;2.30;;
1446;SDS011;717;51.522;7.266;2023-04-01T08:18:18;4.65;;;2.58;;
1446;SDS011;717;51.522;7.266;2023-04-01T08:20:57;2.63;;;2.42;;
1446;SDS011;717;51.522;7.266;2023-04-01T08:23:29;3.30;;;2.80;;
1446;SDS011;717;51.522;7.266;2023-04-01T08:26:00;3.20;;;2.20;;
1446;SDS011;717;51.522;7.266;2023-04-01T08:28:37;2.92;;;2.63;;
1446;SDS011;717;51.522;7.266;2023-04-01T08:31:10;3.08;;;2.78;;
1446;SDS011;717;51.522;7.266;2023-04-01T08:33:43;3.30;;;2.95;;
1446;SDS011;717;51.522;7.266;2023-04-01T08:36:15;3.70;;;3.03;;
1446;SDS011;717;51.522;7.266;2023-04-01T08:38:48;4.95;;;3.88;;
1446;SDS011;717;51.522;7.266;2023-04-01T08:44:33;4.35;;;3.80;;
1446;SDS011;717;51.522;7.266;2023-04-01T08:47:39;4.18;;;3.70;;
1446;SDS011;717;51.522;7.266;2023-04-01T08:50:22;5.28;;;4.03;;
1446;SDS011;717;51.522;7.266;2023-04-01T08:53:03;7.22;;;4.38;;
1446;SDS011;717;51.522;7.266;2023-04-01T08:55:38;6.28;;;4.95;;
1446;SDS011;717;51.522;7.266;2023-04-01T09:01:17;5.93;;;4.88;;
1446;SDS011;717;51.522;7.266;2023-04-01T09:04:01;6.43;;;4.97;;
1446;SDS011;717;51.522;7.266;2023-04-01T09:06:47;6.45;;;4.90;;
1446;SDS011;717;51.522;7.266;2023-04-01T09:18:27;6.70;;;4.63;;
1446;SDS011;717;51.522;7.266;2023-04-01T09:21:12;8.05;;;5.68;;
1446;SDS011;717;51.522;7.266;2023-04-01T09:24:02;7.60;;;5.57;;
1446;SDS011;717;51.522;7.266;2023-04-01T09:26:59;8.55;;;5.78;;
1446;SDS011;717;51.522;7.266;2023-04-01T09:29:38;7.40;;;5.22;;
1446;SDS011;717;51.522;7.266;2023-04-01T09:35:48;11.10;;;6.50;;
1446;SDS011;717;51.522;7.266;2023-04-01T09:38:22;8.98;;;6.10;;
1446;SDS011;717;51.522;7.266;2023-04-01T09:40:56;9.10;;;7.07;;
1446;SDS011;717;51.522;7.266;2023-04-01T09:43:28;8.98;;;6.40;;
1446;SDS011;717;51.522;7.266;2023-04-01T09:46:10;9.07;;;6.28;;
1446;SDS011;717;51.522;7.266;2023-04-01T09:48:51;9.75;;;7.88;;
1446;SDS011;717;51.522;7.266;2023-04-01T09:51:46;8.30;;;6.57;;
1446;SDS011;717;51.522;7.266;2023-04-01T09:54:31;14.43;;;9.15;;
1446;SDS011;717;51.522;7.266;2023-04-01T09:57:28;17.98;;;10.23;;
1446;SDS011;717;51.522;7.266;2023-04-01T10:00:25;14.45;;;9.48;;
1446;SDS011;717;51.522;7.266;2023-04-01T10:03:20;15.85;;;10.18;;
1446;SDS011;717;51.522;7.266;2023-04-01T10:06:11;11.85;;;8.63;;
1446;SDS011;717;51.522;7.266;2023-04-01T10:12:21;14.95;;;10.40;;
1446;SDS011;717;51.522;7.266;2023-04-01T10:15:26;13.38;;;8.43;;
1446;SDS011;717;51.522;7.266;2023-04-01T10:18:12;15.82;;;9.50;;
1446;SDS011;717;51.522;7.266;2023-04-01T10:21:16;13.45;;;8.98;;
1446;SDS011;717;51.522;7.266;2023-04-01T10:24:00;14.15;;;9.13;;
1446;SDS011;717;51.522;7.266;2023-04-01T10:26:52;10.85;;;8.50;;
1446;SDS011;717;51.522;7.266;2023-04-01T10:29:58;10.60;;;7.97;;
1446;SDS011;717;51.522;7.266;2023-04-01T10:32:51;13.95;;;8.25;;
1446;SDS011;717;51.522;7.266;2023-04-01T10:38:51;13.82;;;8.55;;
1446;SDS011;717;51.522;7.266;2023-04-01T10:41:53;11.70;;;9.30;;
1446;SDS011;717;51.522;7.266;2023-04-01T10:51:12;9.75;;;7.22;;
1446;SDS011;717;51.522;7.266;2023-04-01T10:53:49;11.38;;;7.85;;
1446;SDS011;717;51.522;7.266;2023-04-01T10:56:40;11.77;;;8.30;;
1446;SDS011;717;51.522;7.266;2023-04-01T11:02:33;11.25;;;8.38;;
1446;SDS011;717;51.522;7.266;2023-04-01T11:05:38;13.07;;;9.38;;
1446;SDS011;717;51.522;7.266;2023-04-01T11:23:36;11.70;;;7.97;;
1446;SDS011;717;51.522;7.266;2023-04-01T11:26:21;11.88;;;8.32;;
1446;SDS011;717;51.522;7.266;2023-04-01T11:29:06;11.18;;;7.68;;
1446;SDS011;717;51.522;7.266;2023-04-01T11:32:13;11.57;;;8.05;;
1446;SDS011;717;51.522;7.266;2023-04-01T11:35:00;10.45;;;7.93;;
1446;SDS011;717;51.522;7.266;2023-04-01T11:37:49;11.43;;;7.82;;
1446;SDS011;717;51.522;7.266;2023-04-01T11:40:25;12.63;;;8.45;;
1446;SDS011;717;51.522;7.266;2023-04-01T11:43:00;14.18;;;9.85;;
1446;SDS011;717;51.522;7.266;2023-04-01T11:45:36;12.85;;;9.10;;
1446;SDS011;717;51.522;7.266;2023-04-01T11:48:11;13.98;;;9.52;;
1446;SDS011;717;51.522;7.266;2023-04-01T11:50:49;15.43;;;10.05;;
1446;SDS011;717;51.522;7.266;2023-04-01T11:53:32;14.00;;;9.25;;
1446;SDS011;717;51.522;7.266;2023-04-01T11:56:23;12.82;;;8.93;;
1446;SDS011;717;51.522;7.266;2023-04-01T11:59:24;13.18;;;8.27;;
1446;SDS011;717;51.522;7.266;2023-04-01T12:02:08;10.52;;;8.27;;
1446;SDS011;717;51.522;7.266;2023-04-01T12:07:45;12.60;;;8.68;;
1446;SDS011;717;51.522;7.266;2023-04-01T12:10:25;15.07;;;9.13;;
1446;SDS011;717;51.522;7.266;2023-04-01T12:13:06;10.88;;;7.95;;
1446;SDS011;717;51.522;7.266;2023-04-01T12:15:47;10.40;;;7.13;;
1446;SDS011;717;51.522;7.266;2023-04-01T12:18:38;11.88;;;7.72;;
1446;SDS011;717;51.522;7.266;2023-04-01T12:21:16;11.85;;;8.15;;
1446;SDS011;717;51.522;7.266;2023-04-01T12:23:57;12.90;;;8.18;;
1446;SDS011;717;51.522;7.266;2023-04-01T12:26:56;12.98;;;8.40;;
1446;SDS011;717;51.522;7.266;2023-04-01T12:29:43;10.98;;;7.75;;
1446;SDS011;717;51.522;7.266;2023-04-01T12:32:24;10.75;;;6.97;;
1446;SDS011;717;51.522;7.266;2023-04-01T12:35:05;11.02;;;8.18;;
1446;SDS011;717;51.522;7.266;2023-04-01T12:37:52;10.50;;;7.78;;
1446;SDS011;717;51.522;7.266;2023-04-01T12:43:51;13.75;;;10.18;;
1446;SDS011;717;51.522;7.266;2023-04-01T12:46:46;15.57;;;10.00;;
1446;SDS011;717;51.522;7.266;2023-04-01T12:49:44;16.90;;;12.07;;
1446;SDS011;717;51.522;7.266;2023-04-01T12:52:25;17.48;;;12.13;;
1446;SDS011;717;51.522;7.266;2023-04-01T12:55:15;15.63;;;11.73;;
1446;SDS011;717;51.522;7.266;2023-04-01T13:00:58;18.58;;;13.27;;
1446;SDS011;717;51.522;7.266;2023-04-01T13:03:48;17.75;;;12.82;;
1446;SDS011;717;51.522;7.266;2023-04-01T13:06:29;18.20;;;14.07;;
1446;SDS011;717;51.522;7.266;2023-04-01T13:09:11;18.33;;;13.43;;
1446;SDS011;717;51.522;7.266;2023-04-01T13:11:52;15.60;;;12.25;;
1446;SDS011;717;51.522;7.266;2023-04-01T13:14:50;18.10;;;12.98;;
1446;SDS011;717;51.522;7.266;2023-04-01T13:17:34;18.23;;;14.45;;
1446;SDS011;717;51.522;7.266;2023-04-01T13:20:14;17.95;;;12.98;;
1446;SDS011;717;51.522;7.266;2023-04-01T13:22:51;17.27;;;11.90;;
1446;SDS011;717;51.522;7.266;2023-04-01T13:25:31;15.77;;;10.27;;
1446;SDS011;717;51.522;7.266;2023-04-01T13:28:09;14.15;;;10.25;;
1446;SDS011;717;51.522;7.266;2023-04-01T13:30:44;12.43;;;10.23;;
1446;SDS011;717;51.522;7.266;2023-04-01T13:33:24;16.15;;;10.70;;
1446;SDS011;717;51.522;7.266;2023-04-01T13:36:06;12.80;;;10.23;;
1446;SDS011;717;51.522;7.266;2023-04-01T13:38:48;12.30;;;9.52;;
1446;SDS011;717;51.522;7.266;2023-04-01T13:41:29;13.90;;;10.40;;
1446;SDS011;717;51.522;7.266;2023-04-01T13:44:07;13.50;;;10.27;;
1446;SDS011;717;51.522;7.266;2023-04-01T13:52:49;9.85;;;6.93;;
1446;SDS011;717;51.522;7.266;2023-04-01T13:55:38;9.13;;;7.50;;
1446;SDS011;717;51.522;7.266;2023-04-01T14:01:12;10.23;;;7.40;;
1446;SDS011;717;51.522;7.266;2023-04-01T14:06:49;10.90;;;7.97;;
1446;SDS011;717;51.522;7.266;2023-04-01T14:12:29;13.40;;;9.93;;
1446;SDS011;717;51.522;7.266;2023-04-01T14:15:14;14.20;;;9.23;;
1446;SDS011;717;51.522;7.266;2023-04-01T14:17:54;14.52;;;8.95;;
1446;SDS011;717;51.522;7.266;2023-04-01T14:20:36;10.35;;;8.30;;
1446;SDS011;717;51.522;7.266;2023-04-01T14:23:13;13.88;;;8.73;;
1446;SDS011;717;51.522;7.266;2023-04-01T14:29:01;8.82;;;7.30;;
1446;SDS011;717;51.522;7.266;2023-04-01T14:31:43;11.93;;;8.48;;
1446;SDS011;717;51.522;7.266;2023-04-01T14:34:26;11.75;;;7.72;;
1446;SDS011;717;51.522;7.266;2023-04-01T14:37:08;10.23;;;6.72;;
1446;SDS011;717;51.522;7.266;2023-04-01T14:39:51;10.32;;;7.05;;
1446;SDS011;717;51.522;7.266;2023-04-01T14:45:51;9.02;;;6.78;;
1446;SDS011;717;51.522;7.266;2023-04-01T14:48:34;9.43;;;7.47;;
1446;SDS011;717;51.522;7.266;2023-04-01T14:51:09;10.23;;;7.80;;
1446;SDS011;717;51.522;7.266;2023-04-01T14:53:52;11.80;;;8.20;;
1446;SDS011;717;51.522;7.266;2023-04-01T14:59:26;14.02;;;10.82;;
1446;SDS011;717;51.522;7.266;2023-04-01T15:01:57;16.38;;;11.73;;
1446;SDS011;717;51.522;7.266;2023-04-01T15:04:41;16.33;;;11.50;;
1446;SDS011;717;51.522;7.266;2023-04-01T15:10:30;16.35;;;12.35;;
1446;SDS011;717;51.522;7.266;2023-04-01T15:13:12;14.70;;;10.98;;
1446;SDS011;717;51.522;7.266;2023-04-01T15:15:49;15.57;;;11.90;;
1446;SDS011;717;51.522;7.266;2023-04-01T15:18:33;17.13;;;12.25;;
1446;SDS011;717;51.522;7.266;2023-04-01T15:21:14;19.75;;;13.02;;
1446;SDS011;717;51.522;7.266;2023-04-01T15:23:50;21.98;;;15.40;;
1446;SDS011;717;51.522;7.266;2023-04-01T15:32:37;22.45;;;14.93;;
1446;SDS011;717;51.522;7.266;2023-04-01T15:35:18;23.95;;;16.73;;
1446;SDS011;717;51.522;7.266;2023-04-01T15:37:56;24.77;;;17.92;;
1446;SDS011;717;51.522;7.266;2023-04-01T15:40:35;27.17;;;17.33;;
1446;SDS011;717;51.522;7.266;2023-04-01T15:43:13;23.67;;;17.55;;
1446;SDS011;717;51.522;7.266;2023-04-01T15:45:51;25.65;;;17.33;;
1446;SDS011;717;51.522;7.266;2023-04-01T15:48:33;22.38;;;16.23;;
1446;SDS011;717;51.522;7.266;2023-04-01T15:51:14;189.32;;;66.25;;
1446;SDS011;717;51.522;7.266;2023-04-01T15:53:57;31.85;;;21.60;;
1446;SDS011;717;51.522;7.266;2023-04-01T15:56:53;19.98;;;14.73;;
1446;SDS011;717;51.522;7.266;2023-04-01T15:59:42;20.63;;;14.13;;
1446;SDS011;717;51.522;7.266;2023-04-01T16:02:21;20.65;;;14.50;;
1446;SDS011;717;51.522;7.266;2023-04-01T16:05:00;53.25;;;33.97;;
1446;SDS011;717;51.522;7.266;2023-04-01T16:07:48;95.05;;;39.58;;
1446;SDS011;717;51.522;7.266;2023-04-01T16:10:32;17.70;;;13.32;;
1446;SDS011;717;51.522;7.266;2023-04-01T16:13:19;20.48;;;13.65;;
1446;SDS011;717;51.522;7.266;2023-04-01T16:15:58;17.27;;;13.07;;
1446;SDS011;717;51.522;7.266;2023-04-01T16:18:35;18.05;;;13.40;;
1446;SDS011;717;51.522;7.266;2023-04-01T16:21:35;17.05;;;11.73;;
1446;SDS011;717;51.522;7.266;2023-04-01T16:24:12;15.52;;;11.75;;
1446;SDS011;717;51.522;7.266;2023-04-01T16:26:47;16.20;;;12.48;;
1446;SDS011;717;51.522;7.266;2023-04-01T16:29:27;15.13;;;11.82;;
1446;SDS011;717;51.522;7.266;2023-04-01T16:32:13;18.50;;;15.50;;
1446;SDS011;717;51.522;7.266;2023-04-01T16:35:15;14.70;;;11.18;;
1446;SDS011;717;51.522;7.266;2023-04-01T16:37:55;13.10;;;9.98;;
1446;SDS011;717;51.522;7.266;2023-04-01T16:40:37;13.02;;;10.65;;
1446;SDS011;717;51.522;7.266;2023-04-01T16:43:13;12.98;;;10.43;;
1446;SDS011;717;51.522;7.266;2023-04-01T16:45:53;13.02;;;10.77;;
1446;SDS011;717;51.522;7.266;2023-04-01T16:48:34;11.82;;;9.90;;
1446;SDS011;717;51.522;7.266;2023-04-01T16:51:19;13.10;;;10.65;;
1446;SDS011;717;51.522;7.266;2023-04-01T16:53:52;11.80;;;9.75;;
1446;SDS011;717;51.522;7.266;2023-04-01T16:56:36;13.27;;;9.32;;
1446;SDS011;717;51.522;7.266;2023-04-01T16:59:13;11.15;;;9.20;;
1446;SDS011;717;51.522;7.266;2023-04-01T17:01:48;10.30;;;9.10;;
1446;SDS011;717;51.522;7.266;2023-04-01T17:04:27;13.20;;;10.27;;
1446;SDS011;717;51.522;7.266;2023-04-01T17:07:02;12.20;;;10.23;;
1446;SDS011;717;51.522;7.266;2023-04-01T17:12:28;14.07;;;11.40;;
1446;SDS011;717;51.522;7.266;2023-04-01T17:15:05;14.43;;;10.40;;
1446;SDS011;717;51.522;7.266;2023-04-01T17:17:42;12.70;;;10.48;;
1446;SDS011;717;51.522;7.266;2023-04-01T17:20:28;13.57;;;10.35;;
1446;SDS011;717;51.522;7.266;2023-04-01T17:23:11;13.50;;;11.73;;
1446;SDS011;717;51.522;7.266;2023-04-01T17:25:57;14.65;;;11.75;;
1446;SDS011;717;51.522;7.266;2023-04-01T17:28:41;13.32;;;10.90;;
1446;SDS011;717;51.522;7.266;2023-04-01T17:31:20;11.20;;;9.73;;
1446;SDS011;717;51.522;7.266;2023-04-01T17:34:17;12.82;;;10.18;;
1446;SDS011;717;51.522;7.266;2023-04-01T17:37:12;14.50;;;12.48;;
1446;SDS011;717;51.522;7.266;2023-04-01T17:39:58;15.25;;;12.63;;
1446;SDS011;717;51.522;7.266;2023-04-01T17:42:40;43.42;;;31.48;;
1446;SDS011;717;51.522;7.266;2023-04-01T17:45:18;30.88;;;19.15;;
1446;SDS011;717;51.522;7.266;2023-04-01T17:47:59;18.83;;;14.23;;
1446;SDS011;717;51.522;7.266;2023-04-01T17:50:44;18.98;;;15.18;;
1446;SDS011;717;51.522;7.266;2023-04-01T17:53:29;17.83;;;14.40;;
1446;SDS011;717;51.522;7.266;2023-04-01T17:56:06;21.00;;;14.45;;
1446;SDS011;717;51.522;7.266;2023-04-01T17:58:46;18.27;;;13.70;;
1446;SDS011;717;51.522;7.266;2023-04-01T18:01:30;17.90;;;13.82;;
1446;SDS011;717;51.522;7.266;2023-04-01T18:04:18;17.88;;;13.07;;
1446;SDS011;717;51.522;7.266;2023-04-01T18:07:09;17.40;;;12.95;;
1446;SDS011;717;51.522;7.266;2023-04-01T18:09:52;18.23;;;14.23;;
1446;SDS011;717;51.522;7.266;2023-04-01T18:12:34;18.88;;;14.27;;
1446;SDS011;717;51.522;7.266;2023-04-01T18:15:18;19.90;;;14.35;;